sensor_id;sensor_type;location;lat;lon;timestamp;P1;durP1;ratioP1;P2;durP2;ratioP2
22417;SDS011;11376;50.932;4.442;2023-12-04T00:00:15;10.23;;;3.80;;
22417;SDS011;11376;50.932;4.442;2023-12-04T00:02:41;9.90;;;3.50;;
22417;SDS011;11376;50.932;4.442;2023-12-04T00:05:07;9.30;;;3.70;;
22417;SDS011;11376;50.932;4.442;2023-12-04T00:07:33;8.17;;;3.40;;
22417;SDS011;11376;50.932;4.442;2023-12-04T00:09:58;9.37;;;3.20;;
22417;SDS011;11376;50.932;4.442;2023-12-04T00:12:24;10.90;;;4.10;;
22417;SDS011;11376;50.932;4.442;2023-12-04T00:14:49;8.97;;;3.97;;
22417;SDS011;11376;50.932;4.442;2023-12-04T00:17:15;10.80;;;4.20;;
22417;SDS011;11376;50.932;4.442;2023-12-04T00:19:42;8.53;;;3.50;;
22417;SDS011;11376;50.932;4.442;2023-12-04T00:22:07;9.00;;;3.77;;
22417;SDS011;11376;50.932;4.442;2023-12-04T00:24:33;8.17;;;3.63;;
22417;SDS011;11376;50.932;4.442;2023-12-04T00:26:58;9.77;;;3.17;;
22417;SDS011;11376;50.932;4.442;2023-12-04T00:29:24;9.87;;;3.77;;
22417;SDS011;11376;50.932;4.442;2023-12-04T00:31:50;10.63;;;3.97;;
22417;SDS011;11376;50.932;4.442;2023-12-04T00:34:15;9.43;;;4.10;;
22417;SDS011;11376;50.932;4.442;2023-12-04T00:36:41;10.30;;;3.40;;
22417;SDS011;11376;50.932;4.442;2023-12-04T00:39:06;9.77;;;4.10;;
22417;SDS011;11376;50.932;4.442;2023-12-04T00:41:32;9.23;;;3.70;;
22417;SDS011;11376;50.932;4.442;2023-12-04T00:43:58;10.33;;;3.77;;
22417;SDS011;11376;50.932;4.442;2023-12-04T00:46:23;8.17;;;3.27;;
22417;SDS011;11376;50.932;4.442;2023-12-04T00:48:49;7.10;;;3.17;;
22417;SDS011;11376;50.932;4.442;2023-12-04T00:51:14;9.47;;;3.60;;
22417;SDS011;11376;50.932;4.442;2023-12-04T00:53:40;7.93;;;3.83;;
22417;SDS011;11376;50.932;4.442;2023-12-04T00:56:06;7.17;;;2.83;;
22417;SDS011;11376;50.932;4.442;2023-12-04T00:58:32;9.20;;;3.70;;
22417;SDS011;11376;50.932;4.442;2023-12-04T01:00:57;8.70;;;3.63;;
22417;SDS011;11376;50.932;4.442;2023-12-04T01:03:23;8.63;;;3.60;;
22417;SDS011;11376;50.932;4.442;2023-12-04T01:05:51;7.50;;;3.27;;
22417;SDS011;11376;50.932;4.442;2023-12-04T01:08:17;6.63;;;2.37;;
22417;SDS011;11376;50.932;4.442;2023-12-04T01:10:42;8.07;;;3.40;;
22417;SDS011;11376;50.932;4.442;2023-12-04T01:13:08;8.37;;;3.47;;
22417;SDS011;11376;50.932;4.442;2023-12-04T01:15:34;7.67;;;2.83;;
22417;SDS011;11376;50.932;4.442;2023-12-04T01:17:59;9.77;;;3.17;;
22417;SDS011;11376;50.932;4.442;2023-12-04T01:20:25;9.27;;;3.43;;
22417;SDS011;11376;50.932;4.442;2023-12-04T01:22:51;8.70;;;3.37;;
22417;SDS011;11376;50.932;4.442;2023-12-04T01:25:17;7.70;;;3.07;;
22417;SDS011;11376;50.932;4.442;2023-12-04T01:27:43;6.33;;;2.37;;
22417;SDS011;11376;50.932;4.442;2023-12-04T01:30:09;7.77;;;3.00;;
22417;SDS011;11376;50.932;4.442;2023-12-04T01:32:35;8.80;;;3.47;;
22417;SDS011;11376;50.932;4.442;2023-12-04T01:35:01;6.77;;;3.10;;
22417;SDS011;11376;50.932;4.442;2023-12-04T01:37:27;8.20;;;3.20;;
22417;SDS011;11376;50.932;4.442;2023-12-04T01:39:53;7.97;;;3.60;;
22417;SDS011;11376;50.932;4.442;2023-12-04T01:42:18;8.37;;;3.53;;
22417;SDS011;11376;50.932;4.442;2023-12-04T01:44:44;9.33;;;3.47;;
22417;SDS011;11376;50.932;4.442;2023-12-04T01:47:10;7.97;;;3.07;;
22417;SDS011;11376;50.932;4.442;2023-12-04T01:49:36;8.80;;;3.30;;
22417;SDS011;11376;50.932;4.442;2023-12-04T01:52:02;8.40;;;3.37;;
22417;SDS011;11376;50.932;4.442;2023-12-04T01:54:29;7.70;;;3.30;;
22417;SDS011;11376;50.932;4.442;2023-12-04T01:56:56;6.33;;;3.03;;
22417;SDS011;11376;50.932;4.442;2023-12-04T01:59:22;7.37;;;3.27;;
22417;SDS011;11376;50.932;4.442;2023-12-04T02:01:50;8.53;;;3.23;;
22417;SDS011;11376;50.932;4.442;2023-12-04T02:04:17;8.60;;;3.37;;
22417;SDS011;11376;50.932;4.442;2023-12-04T02:06:43;8.33;;;3.43;;
22417;SDS011;11376;50.932;4.442;2023-12-04T02:09:09;7.17;;;3.10;;
22417;SDS011;11376;50.932;4.442;2023-12-04T02:11:37;7.43;;;2.90;;
22417;SDS011;11376;50.932;4.442;2023-12-04T02:14:04;8.57;;;3.27;;
22417;SDS011;11376;50.932;4.442;2023-12-04T02:16:30;7.90;;;3.13;;
22417;SDS011;11376;50.932;4.442;2023-12-04T02:18:57;8.50;;;3.50;;
22417;SDS011;11376;50.932;4.442;2023-12-04T02:21:23;8.67;;;3.10;;
22417;SDS011;11376;50.932;4.442;2023-12-04T02:23:52;10.07;;;4.03;;
22417;SDS011;11376;50.932;4.442;2023-12-04T02:26:18;8.07;;;3.00;;
22417;SDS011;11376;50.932;4.442;2023-12-04T02:28:50;8.37;;;3.47;;
22417;SDS011;11376;50.932;4.442;2023-12-04T02:31:23;8.03;;;3.43;;
22417;SDS011;11376;50.932;4.442;2023-12-04T02:33:50;7.53;;;3.53;;
22417;SDS011;11376;50.932;4.442;2023-12-04T02:36:17;9.80;;;3.33;;
22417;SDS011;11376;50.932;4.442;2023-12-04T02:38:44;9.93;;;3.67;;
22417;SDS011;11376;50.932;4.442;2023-12-04T02:41:11;8.50;;;3.60;;
22417;SDS011;11376;50.932;4.442;2023-12-04T02:43:36;9.30;;;3.80;;
22417;SDS011;11376;50.932;4.442;2023-12-04T02:46:02;7.40;;;2.77;;
22417;SDS011;11376;50.932;4.442;2023-12-04T02:48:28;7.50;;;3.20;;
22417;SDS011;11376;50.932;4.442;2023-12-04T02:50:54;8.00;;;3.83;;
22417;SDS011;11376;50.932;4.442;2023-12-04T02:53:19;9.03;;;3.90;;
22417;SDS011;11376;50.932;4.442;2023-12-04T02:55:45;7.40;;;3.20;;
22417;SDS011;11376;50.932;4.442;2023-12-04T02:58:10;9.53;;;3.50;;
22417;SDS011;11376;50.932;4.442;2023-12-04T03:00:36;8.13;;;3.23;;
22417;SDS011;11376;50.932;4.442;2023-12-04T03:03:02;8.60;;;3.17;;
22417;SDS011;11376;50.932;4.442;2023-12-04T03:05:27;8.63;;;3.30;;
22417;SDS011;11376;50.932;4.442;2023-12-04T03:07:53;7.57;;;3.47;;
22417;SDS011;11376;50.932;4.442;2023-12-04T03:10:18;8.37;;;3.10;;
22417;SDS011;11376;50.932;4.442;2023-12-04T03:12:44;7.13;;;2.70;;
22417;SDS011;11376;50.932;4.442;2023-12-04T03:15:10;8.60;;;3.37;;
22417;SDS011;11376;50.932;4.442;2023-12-04T03:17:36;8.33;;;2.83;;
22417;SDS011;11376;50.932;4.442;2023-12-04T03:20:02;7.30;;;3.20;;
22417;SDS011;11376;50.932;4.442;2023-12-04T03:22:29;7.63;;;3.10;;
22417;SDS011;11376;50.932;4.442;2023-12-04T03:24:55;6.90;;;3.23;;
22417;SDS011;11376;50.932;4.442;2023-12-04T03:27:20;7.37;;;3.23;;
22417;SDS011;11376;50.932;4.442;2023-12-04T03:29:46;8.07;;;3.20;;
22417;SDS011;11376;50.932;4.442;2023-12-04T03:32:12;10.03;;;3.00;;
22417;SDS011;11376;50.932;4.442;2023-12-04T03:34:37;8.80;;;2.90;;
22417;SDS011;11376;50.932;4.442;2023-12-04T03:37:03;7.47;;;3.27;;
22417;SDS011;11376;50.932;4.442;2023-12-04T03:39:29;9.90;;;3.03;;
22417;SDS011;11376;50.932;4.442;2023-12-04T03:41:54;6.93;;;3.00;;
22417;SDS011;11376;50.932;4.442;2023-12-04T03:44:20;6.93;;;3.00;;
22417;SDS011;11376;50.932;4.442;2023-12-04T03:46:45;7.93;;;3.00;;
22417;SDS011;11376;50.932;4.442;2023-12-04T03:49:11;7.63;;;3.50;;
22417;SDS011;11376;50.932;4.442;2023-12-04T03:51:37;8.03;;;3.50;;
22417;SDS011;11376;50.932;4.442;2023-12-04T03:54:02;7.33;;;3.00;;
22417;SDS011;11376;50.932;4.442;2023-12-04T03:56:28;8.30;;;3.33;;
22417;SDS011;11376;50.932;4.442;2023-12-04T03:58:53;7.43;;;2.83;;
22417;SDS011;11376;50.932;4.442;2023-12-04T04:01:19;7.27;;;2.90;;
22417;SDS011;11376;50.932;4.442;2023-12-04T04:03:45;8.63;;;3.20;;
22417;SDS011;11376;50.932;4.442;2023-12-04T04:06:11;7.13;;;2.93;;
22417;SDS011;11376;50.932;4.442;2023-12-04T04:08:36;6.07;;;2.80;;
22417;SDS011;11376;50.932;4.442;2023-12-04T04:11:02;7.40;;;3.23;;
22417;SDS011;11376;50.932;4.442;2023-12-04T04:13:28;6.70;;;2.80;;
22417;SDS011;11376;50.932;4.442;2023-12-04T04:15:54;7.67;;;2.87;;
22417;SDS011;11376;50.932;4.442;2023-12-04T04:18:19;6.37;;;2.93;;
22417;SDS011;11376;50.932;4.442;2023-12-04T04:20:45;6.27;;;2.80;;
22417;SDS011;11376;50.932;4.442;2023-12-04T04:23:10;5.90;;;2.80;;
22417;SDS011;11376;50.932;4.442;2023-12-04T04:25:36;6.67;;;3.03;;
22417;SDS011;11376;50.932;4.442;2023-12-04T04:28:02;7.73;;;3.27;;
22417;SDS011;11376;50.932;4.442;2023-12-04T04:30:28;5.27;;;2.70;;
22417;SDS011;11376;50.932;4.442;2023-12-04T04:32:53;5.37;;;2.63;;
22417;SDS011;11376;50.932;4.442;2023-12-04T04:35:19;6.60;;;3.10;;
22417;SDS011;11376;50.932;4.442;2023-12-04T04:37:44;8.13;;;3.07;;
22417;SDS011;11376;50.932;4.442;2023-12-04T04:40:10;7.37;;;2.87;;
22417;SDS011;11376;50.932;4.442;2023-12-04T04:42:36;6.10;;;2.70;;
22417;SDS011;11376;50.932;4.442;2023-12-04T04:45:01;6.47;;;2.70;;
22417;SDS011;11376;50.932;4.442;2023-12-04T04:47:27;6.87;;;2.60;;
22417;SDS011;11376;50.932;4.442;2023-12-04T04:49:53;6.93;;;2.70;;
22417;SDS011;11376;50.932;4.442;2023-12-04T04:52:18;5.33;;;2.70;;
22417;SDS011;11376;50.932;4.442;2023-12-04T04:54:44;6.57;;;2.90;;
22417;SDS011;11376;50.932;4.442;2023-12-04T04:57:10;7.37;;;3.13;;
22417;SDS011;11376;50.932;4.442;2023-12-04T04:59:35;6.30;;;2.50;;
22417;SDS011;11376;50.932;4.442;2023-12-04T05:02:01;7.77;;;2.60;;
22417;SDS011;11376;50.932;4.442;2023-12-04T05:04:26;6.00;;;2.60;;
22417;SDS011;11376;50.932;4.442;2023-12-04T05:06:52;7.10;;;2.50;;
22417;SDS011;11376;50.932;4.442;2023-12-04T05:09:18;6.13;;;2.43;;
22417;SDS011;11376;50.932;4.442;2023-12-04T05:11:43;8.00;;;2.70;;
22417;SDS011;11376;50.932;4.442;2023-12-04T05:14:09;6.53;;;2.67;;
22417;SDS011;11376;50.932;4.442;2023-12-04T05:16:35;6.00;;;2.30;;
22417;SDS011;11376;50.932;4.442;2023-12-04T05:19:00;7.27;;;2.90;;
22417;SDS011;11376;50.932;4.442;2023-12-04T05:21:26;7.20;;;2.90;;
22417;SDS011;11376;50.932;4.442;2023-12-04T05:23:52;6.50;;;2.27;;
22417;SDS011;11376;50.932;4.442;2023-12-04T05:26:17;5.03;;;2.47;;
22417;SDS011;11376;50.932;4.442;2023-12-04T05:28:43;7.37;;;2.40;;
22417;SDS011;11376;50.932;4.442;2023-12-04T05:31:08;8.33;;;2.70;;
22417;SDS011;11376;50.932;4.442;2023-12-04T05:33:34;9.33;;;2.30;;
22417;SDS011;11376;50.932;4.442;2023-12-04T05:36:00;5.87;;;2.30;;
22417;SDS011;11376;50.932;4.442;2023-12-04T05:38:26;4.77;;;1.97;;
22417;SDS011;11376;50.932;4.442;2023-12-04T05:40:51;5.83;;;2.40;;
22417;SDS011;11376;50.932;4.442;2023-12-04T05:43:17;8.07;;;2.30;;
22417;SDS011;11376;50.932;4.442;2023-12-04T05:45:44;5.10;;;2.23;;
22417;SDS011;11376;50.932;4.442;2023-12-04T05:48:09;4.90;;;2.17;;
22417;SDS011;11376;50.932;4.442;2023-12-04T05:50:35;6.23;;;2.20;;
22417;SDS011;11376;50.932;4.442;2023-12-04T05:53:00;6.63;;;2.30;;
22417;SDS011;11376;50.932;4.442;2023-12-04T05:55:26;4.50;;;2.10;;
22417;SDS011;11376;50.932;4.442;2023-12-04T05:57:52;5.70;;;2.37;;
22417;SDS011;11376;50.932;4.442;2023-12-04T06:00:18;6.47;;;2.20;;
22417;SDS011;11376;50.932;4.442;2023-12-04T06:02:43;5.90;;;2.43;;
22417;SDS011;11376;50.932;4.442;2023-12-04T06:05:10;5.73;;;2.60;;
22417;SDS011;11376;50.932;4.442;2023-12-04T06:07:36;4.70;;;2.33;;
22417;SDS011;11376;50.932;4.442;2023-12-04T06:10:02;6.50;;;2.60;;
22417;SDS011;11376;50.932;4.442;2023-12-04T06:12:33;6.47;;;2.80;;
22417;SDS011;11376;50.932;4.442;2023-12-04T06:14:58;5.53;;;2.43;;
22417;SDS011;11376;50.932;4.442;2023-12-04T06:17:25;6.23;;;2.73;;
22417;SDS011;11376;50.932;4.442;2023-12-04T06:19:51;6.13;;;2.80;;
22417;SDS011;11376;50.932;4.442;2023-12-04T06:22:16;7.00;;;2.80;;
22417;SDS011;11376;50.932;4.442;2023-12-04T06:24:45;6.27;;;2.70;;
22417;SDS011;11376;50.932;4.442;2023-12-04T06:27:12;5.63;;;2.33;;
22417;SDS011;11376;50.932;4.442;2023-12-04T06:29:41;5.53;;;2.27;;
22417;SDS011;11376;50.932;4.442;2023-12-04T06:32:08;7.23;;;2.40;;
22417;SDS011;11376;50.932;4.442;2023-12-04T06:34:34;4.90;;;2.23;;
22417;SDS011;11376;50.932;4.442;2023-12-04T06:37:01;5.30;;;2.33;;
22417;SDS011;11376;50.932;4.442;2023-12-04T06:39:29;7.43;;;2.60;;
22417;SDS011;11376;50.932;4.442;2023-12-04T06:41:58;5.63;;;2.00;;
22417;SDS011;11376;50.932;4.442;2023-12-04T06:44:24;5.97;;;2.40;;
22417;SDS011;11376;50.932;4.442;2023-12-04T06:46:50;6.23;;;2.63;;
22417;SDS011;11376;50.932;4.442;2023-12-04T06:49:17;4.57;;;2.10;;
22417;SDS011;11376;50.932;4.442;2023-12-04T06:51:43;6.67;;;2.00;;
22417;SDS011;11376;50.932;4.442;2023-12-04T06:54:09;5.30;;;2.47;;
22417;SDS011;11376;50.932;4.442;2023-12-04T06:56:36;5.17;;;2.33;;
22417;SDS011;11376;50.932;4.442;2023-12-04T06:59:01;6.77;;;2.10;;
22417;SDS011;11376;50.932;4.442;2023-12-04T07:01:27;5.00;;;1.80;;
22417;SDS011;11376;50.932;4.442;2023-12-04T07:03:53;5.90;;;2.70;;
22417;SDS011;11376;50.932;4.442;2023-12-04T07:06:18;5.43;;;2.13;;
22417;SDS011;11376;50.932;4.442;2023-12-04T07:08:44;8.57;;;2.43;;
22417;SDS011;11376;50.932;4.442;2023-12-04T07:11:09;5.50;;;2.20;;
22417;SDS011;11376;50.932;4.442;2023-12-04T07:13:35;5.07;;;1.87;;
22417;SDS011;11376;50.932;4.442;2023-12-04T07:16:01;6.67;;;2.50;;
22417;SDS011;11376;50.932;4.442;2023-12-04T07:18:28;6.17;;;2.47;;
22417;SDS011;11376;50.932;4.442;2023-12-04T07:20:53;5.17;;;2.33;;
22417;SDS011;11376;50.932;4.442;2023-12-04T07:23:19;5.53;;;2.40;;
22417;SDS011;11376;50.932;4.442;2023-12-04T07:25:44;4.83;;;2.30;;
22417;SDS011;11376;50.932;4.442;2023-12-04T07:28:11;7.23;;;2.63;;
22417;SDS011;11376;50.932;4.442;2023-12-04T07:30:36;6.43;;;2.40;;
22417;SDS011;11376;50.932;4.442;2023-12-04T07:33:02;6.60;;;2.70;;
22417;SDS011;11376;50.932;4.442;2023-12-04T07:35:28;8.80;;;2.20;;
22417;SDS011;11376;50.932;4.442;2023-12-04T07:37:54;5.30;;;2.30;;
22417;SDS011;11376;50.932;4.442;2023-12-04T07:40:19;6.40;;;2.60;;
22417;SDS011;11376;50.932;4.442;2023-12-04T07:42:47;6.37;;;2.60;;
22417;SDS011;11376;50.932;4.442;2023-12-04T07:45:13;5.20;;;1.80;;
22417;SDS011;11376;50.932;4.442;2023-12-04T07:47:40;7.13;;;2.93;;
22417;SDS011;11376;50.932;4.442;2023-12-04T07:50:06;9.90;;;3.00;;
22417;SDS011;11376;50.932;4.442;2023-12-04T07:52:32;6.33;;;2.50;;
22417;SDS011;11376;50.932;4.442;2023-12-04T07:54:58;7.00;;;2.80;;
22417;SDS011;11376;50.932;4.442;2023-12-04T07:57:24;5.53;;;2.67;;
22417;SDS011;11376;50.932;4.442;2023-12-04T07:59:49;5.17;;;2.13;;
22417;SDS011;11376;50.932;4.442;2023-12-04T08:02:15;6.73;;;2.63;;
22417;SDS011;11376;50.932;4.442;2023-12-04T08:04:40;7.97;;;2.53;;
22417;SDS011;11376;50.932;4.442;2023-12-04T08:07:06;6.53;;;2.70;;
22417;SDS011;11376;50.932;4.442;2023-12-04T08:09:32;8.37;;;3.30;;
22417;SDS011;11376;50.932;4.442;2023-12-04T08:11:58;6.10;;;2.53;;
22417;SDS011;11376;50.932;4.442;2023-12-04T08:14:24;6.57;;;2.47;;
22417;SDS011;11376;50.932;4.442;2023-12-04T08:16:49;5.17;;;2.67;;
22417;SDS011;11376;50.932;4.442;2023-12-04T08:19:15;6.77;;;2.80;;
22417;SDS011;11376;50.932;4.442;2023-12-04T08:21:41;7.57;;;2.93;;
22417;SDS011;11376;50.932;4.442;2023-12-04T08:24:07;6.77;;;3.03;;
22417;SDS011;11376;50.932;4.442;2023-12-04T08:26:32;6.80;;;2.63;;
22417;SDS011;11376;50.932;4.442;2023-12-04T08:28:58;5.40;;;2.77;;
22417;SDS011;11376;50.932;4.442;2023-12-04T08:31:24;5.40;;;2.83;;
22417;SDS011;11376;50.932;4.442;2023-12-04T08:33:50;8.17;;;3.10;;
22417;SDS011;11376;50.932;4.442;2023-12-04T08:36:15;9.90;;;3.50;;
22417;SDS011;11376;50.932;4.442;2023-12-04T08:38:41;7.40;;;3.20;;
22417;SDS011;11376;50.932;4.442;2023-12-04T08:41:07;17.17;;;5.67;;
22417;SDS011;11376;50.932;4.442;2023-12-04T08:43:32;6.93;;;3.20;;
22417;SDS011;11376;50.932;4.442;2023-12-04T08:45:58;6.33;;;2.83;;
22417;SDS011;11376;50.932;4.442;2023-12-04T08:48:25;8.23;;;3.03;;
22417;SDS011;11376;50.932;4.442;2023-12-04T08:50:51;5.90;;;2.67;;
22417;SDS011;11376;50.932;4.442;2023-12-04T08:53:16;6.47;;;2.67;;
22417;SDS011;11376;50.932;4.442;2023-12-04T08:55:42;6.67;;;3.00;;
22417;SDS011;11376;50.932;4.442;2023-12-04T08:58:08;8.57;;;2.60;;
22417;SDS011;11376;50.932;4.442;2023-12-04T09:00:35;6.47;;;2.63;;
22417;SDS011;11376;50.932;4.442;2023-12-04T09:03:02;5.83;;;2.40;;
22417;SDS011;11376;50.932;4.442;2023-12-04T09:05:28;6.77;;;3.10;;
22417;SDS011;11376;50.932;4.442;2023-12-04T09:07:54;6.13;;;2.40;;
22417;SDS011;11376;50.932;4.442;2023-12-04T09:10:19;7.93;;;2.80;;
22417;SDS011;11376;50.932;4.442;2023-12-04T09:12:45;8.33;;;3.07;;
22417;SDS011;11376;50.932;4.442;2023-12-04T09:15:10;6.73;;;2.80;;
22417;SDS011;11376;50.932;4.442;2023-12-04T09:17:36;6.33;;;2.63;;
22417;SDS011;11376;50.932;4.442;2023-12-04T09:20:02;6.70;;;2.77;;
22417;SDS011;11376;50.932;4.442;2023-12-04T09:22:30;8.63;;;2.93;;
22417;SDS011;11376;50.932;4.442;2023-12-04T09:24:56;7.40;;;2.97;;
22417;SDS011;11376;50.932;4.442;2023-12-04T09:27:22;8.23;;;3.20;;
22417;SDS011;11376;50.932;4.442;2023-12-04T09:29:48;7.73;;;3.13;;
22417;SDS011;11376;50.932;4.442;2023-12-04T09:32:13;6.73;;;2.93;;
22417;SDS011;11376;50.932;4.442;2023-12-04T09:34:39;6.37;;;3.30;;
22417;SDS011;11376;50.932;4.442;2023-12-04T09:37:05;8.27;;;2.90;;
22417;SDS011;11376;50.932;4.442;2023-12-04T09:39:30;7.83;;;2.73;;
22417;SDS011;11376;50.932;4.442;2023-12-04T09:41:56;8.67;;;3.03;;
22417;SDS011;11376;50.932;4.442;2023-12-04T09:44:23;6.47;;;2.87;;
22417;SDS011;11376;50.932;4.442;2023-12-04T09:46:51;6.63;;;2.73;;
22417;SDS011;11376;50.932;4.442;2023-12-04T09:49:17;6.67;;;3.20;;
22417;SDS011;11376;50.932;4.442;2023-12-04T09:51:44;8.37;;;2.93;;
22417;SDS011;11376;50.932;4.442;2023-12-04T09:54:10;9.90;;;3.57;;
22417;SDS011;11376;50.932;4.442;2023-12-04T09:56:37;8.97;;;3.30;;
22417;SDS011;11376;50.932;4.442;2023-12-04T09:59:03;10.83;;;3.93;;
22417;SDS011;11376;50.932;4.442;2023-12-04T10:01:32;8.27;;;3.70;;
22417;SDS011;11376;50.932;4.442;2023-12-04T10:04:00;33.00;;;4.50;;
22417;SDS011;11376;50.932;4.442;2023-12-04T10:06:27;8.70;;;3.53;;
22417;SDS011;11376;50.932;4.442;2023-12-04T10:08:54;8.10;;;3.07;;
22417;SDS011;11376;50.932;4.442;2023-12-04T10:11:23;6.40;;;3.00;;
22417;SDS011;11376;50.932;4.442;2023-12-04T10:13:49;9.23;;;3.07;;
22417;SDS011;11376;50.932;4.442;2023-12-04T10:16:30;8.53;;;4.03;;
22417;SDS011;11376;50.932;4.442;2023-12-04T10:21:55;9.37;;;3.70;;
22417;SDS011;11376;50.932;4.442;2023-12-04T10:24:28;9.43;;;3.70;;
22417;SDS011;11376;50.932;4.442;2023-12-04T10:26:53;10.83;;;3.30;;
22417;SDS011;11376;50.932;4.442;2023-12-04T10:29:19;8.07;;;3.53;;
22417;SDS011;11376;50.932;4.442;2023-12-04T10:31:45;7.00;;;3.53;;
22417;SDS011;11376;50.932;4.442;2023-12-04T10:34:10;8.03;;;3.43;;
22417;SDS011;11376;50.932;4.442;2023-12-04T10:36:36;7.97;;;3.30;;
22417;SDS011;11376;50.932;4.442;2023-12-04T10:39:02;10.70;;;3.90;;
22417;SDS011;11376;50.932;4.442;2023-12-04T10:41:31;7.77;;;3.33;;
22417;SDS011;11376;50.932;4.442;2023-12-04T10:43:57;7.37;;;3.47;;
22417;SDS011;11376;50.932;4.442;2023-12-04T10:46:26;9.37;;;3.73;;
22417;SDS011;11376;50.932;4.442;2023-12-04T10:48:52;9.37;;;4.10;;
22417;SDS011;11376;50.932;4.442;2023-12-04T10:51:18;8.83;;;4.07;;
22417;SDS011;11376;50.932;4.442;2023-12-04T10:53:46;7.63;;;3.80;;
22417;SDS011;11376;50.932;4.442;2023-12-04T10:56:19;10.13;;;4.30;;
22417;SDS011;11376;50.932;4.442;2023-12-04T10:58:50;9.50;;;4.37;;
22417;SDS011;11376;50.932;4.442;2023-12-04T11:01:18;7.10;;;3.70;;
22417;SDS011;11376;50.932;4.442;2023-12-04T11:03:48;9.03;;;4.00;;
22417;SDS011;11376;50.932;4.442;2023-12-04T11:06:17;8.53;;;3.90;;
22417;SDS011;11376;50.932;4.442;2023-12-04T11:08:45;8.97;;;3.77;;
22417;SDS011;11376;50.932;4.442;2023-12-04T11:11:15;9.03;;;3.77;;
22417;SDS011;11376;50.932;4.442;2023-12-04T11:13:48;8.50;;;3.77;;
22417;SDS011;11376;50.932;4.442;2023-12-04T11:16:18;10.33;;;3.80;;
22417;SDS011;11376;50.932;4.442;2023-12-04T11:19:01;9.63;;;3.90;;
22417;SDS011;11376;50.932;4.442;2023-12-04T11:21:49;8.70;;;3.97;;
22417;SDS011;11376;50.932;4.442;2023-12-04T11:24:16;9.80;;;4.07;;
22417;SDS011;11376;50.932;4.442;2023-12-04T11:26:43;8.87;;;3.77;;
22417;SDS011;11376;50.932;4.442;2023-12-04T11:29:09;6.93;;;3.80;;
22417;SDS011;11376;50.932;4.442;2023-12-04T11:31:36;7.17;;;3.47;;
22417;SDS011;11376;50.932;4.442;2023-12-04T11:34:02;9.30;;;4.27;;
22417;SDS011;11376;50.932;4.442;2023-12-04T11:36:29;6.27;;;3.23;;
22417;SDS011;11376;50.932;4.442;2023-12-04T11:38:55;11.53;;;3.87;;
22417;SDS011;11376;50.932;4.442;2023-12-04T11:41:24;9.13;;;3.70;;
22417;SDS011;11376;50.932;4.442;2023-12-04T11:43:50;9.77;;;4.27;;
22417;SDS011;11376;50.932;4.442;2023-12-04T11:46:20;10.57;;;3.77;;
22417;SDS011;11376;50.932;4.442;2023-12-04T11:48:48;10.47;;;4.03;;
22417;SDS011;11376;50.932;4.442;2023-12-04T11:51:15;11.00;;;4.20;;
22417;SDS011;11376;50.932;4.442;2023-12-04T11:54:03;10.50;;;4.87;;
22417;SDS011;11376;50.932;4.442;2023-12-04T11:56:30;8.63;;;4.60;;
22417;SDS011;11376;50.932;4.442;2023-12-04T11:59:02;10.10;;;4.30;;
22417;SDS011;11376;50.932;4.442;2023-12-04T12:01:38;9.87;;;4.20;;
22417;SDS011;11376;50.932;4.442;2023-12-04T12:04:07;10.10;;;4.20;;
22417;SDS011;11376;50.932;4.442;2023-12-04T12:06:35;8.63;;;4.20;;
22417;SDS011;11376;50.932;4.442;2023-12-04T12:09:00;10.63;;;4.07;;
22417;SDS011;11376;50.932;4.442;2023-12-04T12:11:26;7.67;;;3.80;;
22417;SDS011;11376;50.932;4.442;2023-12-04T12:13:53;11.23;;;4.63;;
22417;SDS011;11376;50.932;4.442;2023-12-04T12:16:19;11.63;;;4.73;;
22417;SDS011;11376;50.932;4.442;2023-12-04T12:18:44;11.60;;;4.67;;
22417;SDS011;11376;50.932;4.442;2023-12-04T12:21:11;9.03;;;4.10;;
22417;SDS011;11376;50.932;4.442;2023-12-04T12:23:37;10.90;;;4.73;;
22417;SDS011;11376;50.932;4.442;2023-12-04T12:26:03;9.07;;;4.57;;
22417;SDS011;11376;50.932;4.442;2023-12-04T12:28:29;11.27;;;4.50;;
22417;SDS011;11376;50.932;4.442;2023-12-04T12:30:55;10.37;;;4.57;;
22417;SDS011;11376;50.932;4.442;2023-12-04T12:33:20;10.20;;;5.00;;
22417;SDS011;11376;50.932;4.442;2023-12-04T12:35:48;10.27;;;4.80;;
22417;SDS011;11376;50.932;4.442;2023-12-04T12:38:14;10.87;;;4.60;;
22417;SDS011;11376;50.932;4.442;2023-12-04T12:40:39;9.43;;;4.43;;
22417;SDS011;11376;50.932;4.442;2023-12-04T12:43:06;11.20;;;5.20;;
22417;SDS011;11376;50.932;4.442;2023-12-04T12:45:41;10.13;;;5.07;;
22417;SDS011;11376;50.932;4.442;2023-12-04T12:48:14;8.80;;;4.57;;
22417;SDS011;11376;50.932;4.442;2023-12-04T12:50:41;11.80;;;5.10;;
22417;SDS011;11376;50.932;4.442;2023-12-04T12:53:08;9.77;;;4.80;;
22417;SDS011;11376;50.932;4.442;2023-12-04T12:55:37;9.90;;;4.90;;
22417;SDS011;11376;50.932;4.442;2023-12-04T12:58:06;11.03;;;5.10;;
22417;SDS011;11376;50.932;4.442;2023-12-04T13:00:35;11.90;;;5.73;;
22417;SDS011;11376;50.932;4.442;2023-12-04T13:03:01;13.43;;;5.00;;
22417;SDS011;11376;50.932;4.442;2023-12-04T13:05:27;9.77;;;5.17;;
22417;SDS011;11376;50.932;4.442;2023-12-04T13:07:53;11.43;;;4.80;;
22417;SDS011;11376;50.932;4.442;2023-12-04T13:10:20;9.57;;;5.20;;
22417;SDS011;11376;50.932;4.442;2023-12-04T13:12:46;14.67;;;5.60;;
22417;SDS011;11376;50.932;4.442;2023-12-04T13:15:17;9.67;;;4.67;;
22417;SDS011;11376;50.932;4.442;2023-12-04T13:17:43;12.73;;;4.43;;
22417;SDS011;11376;50.932;4.442;2023-12-04T13:20:08;11.80;;;4.53;;
22417;SDS011;11376;50.932;4.442;2023-12-04T13:22:38;9.50;;;4.10;;
22417;SDS011;11376;50.932;4.442;2023-12-04T13:25:03;8.87;;;3.60;;
22417;SDS011;11376;50.932;4.442;2023-12-04T13:27:32;10.90;;;3.93;;
22417;SDS011;11376;50.932;4.442;2023-12-04T13:29:58;8.37;;;4.00;;
22417;SDS011;11376;50.932;4.442;2023-12-04T13:32:24;16.90;;;4.20;;
22417;SDS011;11376;50.932;4.442;2023-12-04T13:34:49;11.90;;;4.87;;
22417;SDS011;11376;50.932;4.442;2023-12-04T13:37:15;10.57;;;4.60;;
22417;SDS011;11376;50.932;4.442;2023-12-04T13:39:41;25.10;;;6.53;;
22417;SDS011;11376;50.932;4.442;2023-12-04T13:42:13;11.63;;;5.73;;
22417;SDS011;11376;50.932;4.442;2023-12-04T13:44:58;10.67;;;4.77;;
22417;SDS011;11376;50.932;4.442;2023-12-04T13:47:24;9.90;;;5.13;;
22417;SDS011;11376;50.932;4.442;2023-12-04T13:49:50;17.40;;;5.43;;
22417;SDS011;11376;50.932;4.442;2023-12-04T13:52:15;10.33;;;5.00;;
22417;SDS011;11376;50.932;4.442;2023-12-04T13:54:45;8.73;;;4.30;;
22417;SDS011;11376;50.932;4.442;2023-12-04T13:57:13;8.47;;;4.23;;
22417;SDS011;11376;50.932;4.442;2023-12-04T13:59:53;7.50;;;3.97;;
22417;SDS011;11376;50.932;4.442;2023-12-04T14:02:22;11.47;;;4.60;;
22417;SDS011;11376;50.932;4.442;2023-12-04T14:04:47;10.17;;;4.17;;
22417;SDS011;11376;50.932;4.442;2023-12-04T14:07:13;8.17;;;4.33;;
22417;SDS011;11376;50.932;4.442;2023-12-04T14:09:39;10.53;;;4.00;;
22417;SDS011;11376;50.932;4.442;2023-12-04T14:12:05;10.63;;;4.03;;
22417;SDS011;11376;50.932;4.442;2023-12-04T14:14:31;8.00;;;4.20;;
22417;SDS011;11376;50.932;4.442;2023-12-04T14:16:58;8.13;;;3.80;;
22417;SDS011;11376;50.932;4.442;2023-12-04T14:19:24;9.87;;;4.60;;
22417;SDS011;11376;50.932;4.442;2023-12-04T14:21:49;8.90;;;4.17;;
22417;SDS011;11376;50.932;4.442;2023-12-04T14:24:15;7.87;;;3.67;;
22417;SDS011;11376;50.932;4.442;2023-12-04T14:26:41;12.60;;;3.70;;
22417;SDS011;11376;50.932;4.442;2023-12-04T14:29:07;7.57;;;3.20;;
22417;SDS011;11376;50.932;4.442;2023-12-04T14:31:36;6.87;;;3.53;;
22417;SDS011;11376;50.932;4.442;2023-12-04T14:34:01;7.37;;;3.60;;
22417;SDS011;11376;50.932;4.442;2023-12-04T14:36:28;8.57;;;3.73;;
22417;SDS011;11376;50.932;4.442;2023-12-04T14:38:56;5.43;;;3.47;;
22417;SDS011;11376;50.932;4.442;2023-12-04T14:41:22;7.20;;;3.53;;
22417;SDS011;11376;50.932;4.442;2023-12-04T14:43:48;7.30;;;3.83;;